createdAt,value
2022-12-28T00:02:23.393Z,29.00
2022-12-28T00:04:52.156Z,28.50
2022-12-28T00:07:20.877Z,28.50
2022-12-28T00:09:49.504Z,26.50
2022-12-28T00:12:18.932Z,29.33
2022-12-28T00:14:48.454Z,28.00
2022-12-28T00:17:17.165Z,29.50
2022-12-28T00:19:46.691Z,28.00
2022-12-28T00:22:15.379Z,24.50
2022-12-28T00:24:44.116Z,28.00
2022-12-28T00:27:12.811Z,26.00
2022-12-28T00:29:41.524Z,24.50
2022-12-28T00:32:10.351Z,27.00
2022-12-28T00:34:39.051Z,31.00
2022-12-28T00:37:12.984Z,31.50
2022-12-28T00:39:43.404Z,30.00
2022-12-28T00:42:12.052Z,31.50
2022-12-28T00:44:40.478Z,31.00
2022-12-28T00:47:09.953Z,33.00
2022-12-28T00:49:38.866Z,30.00
2022-12-28T00:52:08.504Z,33.67
2022-12-28T00:54:37.199Z,31.50
2022-12-28T00:57:05.054Z,30.00
2022-12-28T00:59:33.718Z,31.50
2022-12-28T01:02:03.430Z,32.00
2022-12-28T01:04:32.349Z,31.50
2022-12-28T01:07:00.155Z,31.00
2022-12-28T01:09:28.944Z,29.00
2022-12-28T01:11:57.728Z,29.00
2022-12-28T01:14:27.243Z,30.67
2022-12-28T01:16:56.804Z,30.00
2022-12-28T01:19:25.573Z,30.50
2022-12-28T01:21:54.359Z,30.00
2022-12-28T01:24:23.329Z,31.00
2022-12-28T01:26:52.804Z,31.00
2022-12-28T01:29:22.283Z,29.00
2022-12-28T01:31:51.833Z,25.00
2022-12-28T01:34:20.620Z,26.50
2022-12-28T01:36:50.127Z,29.00
2022-12-28T01:39:19.641Z,26.33
2022-12-28T01:41:48.393Z,29.00
2022-12-28T01:44:16.012Z,28.00
2022-12-28T01:47:01.202Z,29.00
2022-12-28T01:49:53.706Z,29.33
2022-12-28T01:52:43.385Z,30.00
2022-12-28T01:55:35.818Z,26.67
2022-12-28T01:58:25.019Z,29.00
2022-12-28T02:00:55.056Z,27.00
2022-12-28T02:03:29.648Z,28.00
2022-12-28T02:06:04.864Z,27.00
2022-12-28T02:09:04.540Z,23.67
2022-12-28T02:11:34.183Z,27.00
2022-12-28T02:14:03.778Z,24.50
2022-12-28T02:16:32.688Z,25.00
2022-12-28T02:19:00.533Z,20.50
2022-12-28T02:21:51.662Z,22.00
2022-12-28T02:25:11.974Z,24.50
2022-12-28T02:28:23.633Z,21.00
2022-12-28T02:31:40.370Z,23.00
2022-12-28T02:34:25.577Z,21.00
2022-12-28T02:37:18.252Z,23.50
2022-12-28T02:39:58.741Z,22.33
2022-12-28T02:42:29.959Z,21.00
2022-12-28T02:45:17.274Z,23.00
2022-12-28T02:48:05.897Z,22.50
2022-12-28T02:51:07.835Z,22.50
2022-12-28T02:54:01.758Z,24.00
2022-12-28T02:56:56.540Z,25.50
2022-12-28T02:59:55.963Z,25.00
2022-12-28T03:03:28.569Z,22.00
2022-12-28T03:07:06.467Z,25.00
2022-12-28T03:10:26.111Z,24.00
2022-12-28T03:13:28.904Z,25.00
2022-12-28T03:16:08.082Z,13.33
2022-12-28T03:18:56.938Z,27.00
2022-12-28T03:21:48.101Z,26.50
2022-12-28T03:24:37.831Z,27.00
2022-12-28T03:27:30.268Z,22.00
2022-12-28T03:30:32.166Z,25.00
2022-12-28T03:33:01.634Z,24.50
2022-12-28T03:36:17.208Z,21.00
2022-12-28T03:39:33.856Z,23.50
2022-12-28T03:42:52.915Z,25.50
2022-12-28T03:45:46.388Z,21.33
2022-12-28T03:48:18.069Z,23.00
2022-12-28T03:50:49.581Z,23.00
2022-12-28T03:53:26.851Z,23.00
2022-12-28T03:56:22.071Z,31.00
2022-12-28T03:58:52.869Z,30.00
2022-12-28T04:01:22.785Z,27.00
2022-12-28T04:03:51.077Z,35.00
2022-12-28T04:06:21.579Z,42.33
2022-12-28T04:08:50.350Z,43.50
2022-12-28T04:11:19.867Z,39.00
2022-12-28T04:13:50.217Z,14.17
2022-12-28T04:16:19.097Z,37.50
2022-12-28T04:18:47.883Z,36.00
2022-12-28T04:21:17.129Z,38.00
2022-12-28T04:23:44.889Z,34.00
2022-12-28T04:26:17.699Z,36.33
2022-12-28T04:28:46.508Z,35.00
2022-12-28T04:31:15.177Z,33.00
2022-12-28T04:33:43.025Z,33.00
2022-12-28T04:36:17.079Z,30.00
2022-12-28T04:38:45.788Z,28.50
2022-12-28T04:41:14.554Z,31.00
2022-12-28T04:43:44.094Z,32.00
2022-12-28T04:46:18.526Z,33.00
2022-12-28T04:48:46.331Z,33.00
2022-12-28T04:51:22.098Z,32.00
2022-12-28T04:53:50.577Z,32.00
2022-12-28T04:56:22.447Z,37.00
2022-12-28T04:59:00.754Z,36.67
2022-12-28T05:01:31.063Z,39.67
2022-12-28T05:04:00.812Z,38.00
2022-12-28T05:06:29.580Z,36.50
2022-12-28T05:08:58.791Z,28.00
2022-12-28T05:11:29.721Z,7.00
2022-12-28T05:13:59.135Z,30.50
2022-12-28T05:16:30.849Z,32.00
2022-12-28T05:18:59.642Z,35.00
2022-12-28T05:21:29.987Z,45.33
2022-12-28T05:23:59.916Z,37.67
2022-12-28T05:26:30.517Z,46.33
2022-12-28T05:29:00.134Z,38.33
2022-12-28T05:31:29.775Z,31.67
2022-12-28T05:33:58.634Z,29.50
2022-12-28T05:36:29.027Z,28.67
2022-12-28T05:38:57.386Z,21.00
2022-12-28T05:41:29.571Z,28.00
2022-12-28T05:44:00.178Z,28.00
2022-12-28T05:46:32.677Z,28.00
2022-12-28T05:49:02.318Z,34.00
2022-12-28T05:51:33.580Z,36.00
2022-12-28T05:54:06.785Z,29.00
2022-12-28T05:56:35.993Z,26.00
2022-12-28T05:59:07.782Z,27.50
2022-12-28T06:01:42.597Z,26.50
2022-12-28T06:04:21.329Z,24.50
2022-12-28T06:06:50.176Z,26.00
2022-12-28T06:09:19.744Z,26.33
2022-12-28T06:11:48.532Z,29.50
2022-12-28T06:14:16.324Z,28.00
2022-12-28T06:16:46.099Z,30.33
2022-12-28T06:19:15.594Z,31.00
2022-12-28T06:21:44.721Z,33.00
2022-12-28T06:24:14.513Z,38.67
2022-12-28T06:26:43.344Z,38.00
2022-12-28T06:29:12.807Z,36.50
2022-12-28T06:31:51.454Z,36.00
2022-12-28T06:34:19.347Z,31.00
2022-12-28T06:36:52.704Z,32.50
2022-12-28T06:39:21.383Z,32.50
2022-12-28T06:41:50.713Z,33.00
2022-12-28T06:44:18.491Z,33.00
2022-12-28T06:46:47.384Z,34.50
2022-12-28T06:49:16.057Z,34.00
2022-12-28T06:51:44.754Z,37.00
2022-12-28T06:54:14.295Z,36.67
2022-12-28T06:56:43.129Z,38.00
2022-12-28T06:59:12.670Z,43.33
2022-12-28T07:01:45.011Z,10.67
2022-12-28T07:04:14.952Z,46.00
2022-12-28T07:06:45.230Z,41.33
2022-12-28T07:09:16.723Z,40.00
2022-12-28T07:11:49.387Z,38.33
2022-12-28T07:14:19.319Z,34.67
2022-12-28T07:16:49.422Z,32.00
2022-12-28T07:19:18.930Z,33.00
2022-12-28T07:21:46.669Z,32.00
2022-12-28T07:24:14.591Z,33.00
2022-12-28T07:26:44.759Z,26.00
2022-12-28T07:29:14.364Z,38.67
2022-12-28T07:31:45.739Z,41.33
2022-12-28T07:34:16.453Z,39.33
2022-12-28T07:36:46.100Z,35.67
2022-12-28T07:39:14.793Z,35.00
2022-12-28T07:41:44.924Z,32.33
2022-12-28T07:44:12.813Z,31.00
2022-12-28T07:46:41.659Z,35.00
2022-12-28T07:49:09.452Z,31.00
2022-12-28T07:51:39.620Z,33.50
2022-12-28T07:54:07.835Z,30.00
2022-12-28T07:59:06.810Z,29.67
2022-12-28T08:01:37.469Z,31.00
2022-12-28T08:04:11.327Z,32.00
2022-12-28T08:06:43.197Z,32.50
2022-12-28T08:09:15.226Z,32.50
2022-12-28T08:11:46.626Z,45.33
2022-12-28T08:14:16.439Z,40.33
2022-12-28T08:16:46.016Z,34.33
2022-12-28T08:19:15.538Z,41.00
2022-12-28T08:21:47.128Z,40.33
2022-12-28T08:24:19.934Z,37.00
2022-12-28T08:26:50.216Z,42.00
2022-12-28T08:29:22.815Z,39.00
2022-12-28T08:31:52.329Z,40.00
2022-12-28T08:34:26.973Z,41.33
2022-12-28T08:36:57.507Z,37.67
2022-12-28T08:39:29.759Z,47.33
2022-12-28T08:41:59.422Z,56.33
2022-12-28T08:44:29.051Z,52.33
2022-12-28T08:46:58.858Z,52.67
2022-12-28T08:49:28.522Z,45.00
2022-12-28T08:51:59.127Z,61.25
2022-12-28T08:54:28.756Z,57.00
2022-12-28T08:56:58.350Z,52.33
2022-12-28T08:59:27.852Z,44.33
2022-12-28T09:01:57.504Z,44.00
2022-12-28T09:04:27.246Z,49.33
2022-12-28T09:06:56.811Z,47.00
2022-12-28T09:09:26.335Z,42.00
2022-12-28T09:11:55.901Z,40.00
2022-12-28T09:14:25.536Z,39.00
2022-12-28T09:16:55.003Z,34.00
2022-12-28T09:19:24.682Z,27.33
2022-12-28T09:21:55.510Z,28.00
2022-12-28T09:24:25.018Z,26.67
2022-12-28T09:26:55.494Z,24.00
2022-12-28T09:29:24.213Z,18.50
2022-12-28T09:31:53.661Z,24.67
2022-12-28T09:34:38.602Z,38.00
2022-12-28T09:37:08.873Z,25.00
2022-12-28T09:39:38.394Z,28.00
2022-12-28T09:42:17.405Z,25.67
2022-12-28T09:45:00.667Z,21.33
2022-12-28T09:47:49.911Z,22.33
2022-12-28T09:50:19.318Z,30.00
2022-12-28T09:53:24.058Z,17.50
2022-12-28T09:55:58.369Z,15.00
2022-12-28T09:58:30.695Z,13.67
2022-12-28T10:01:02.127Z,8.00
2022-12-28T10:03:40.657Z,9.67
2022-12-28T10:06:17.709Z,7.00
2022-12-28T10:09:01.713Z,6.00
2022-12-28T10:11:39.822Z,7.00
2022-12-28T10:14:36.199Z,6.00
2022-12-28T10:17:06.455Z,6.00
2022-12-28T10:19:34.271Z,6.00
2022-12-28T10:22:13.303Z,7.00
2022-12-28T10:24:41.694Z,7.00
2022-12-28T10:27:23.464Z,7.00
2022-12-28T10:29:55.088Z,6.50
2022-12-28T10:32:23.005Z,4.00
2022-12-28T10:35:03.479Z,8.50
2022-12-28T10:37:37.249Z,8.00
2022-12-28T10:40:27.446Z,8.33
2022-12-28T10:42:58.761Z,8.40
2022-12-28T10:45:41.065Z,10.80
2022-12-28T10:48:23.156Z,7.00
2022-12-28T10:51:14.603Z,8.00
2022-12-28T10:53:51.383Z,10.00
2022-12-28T10:56:31.166Z,9.00
2022-12-28T10:59:32.295Z,8.00
2022-12-28T11:02:30.452Z,9.00
2022-12-28T11:05:06.110Z,8.00
2022-12-28T11:07:39.279Z,4.00
2022-12-28T11:10:26.017Z,4.00
2022-12-28T11:12:58.287Z,6.50
2022-12-28T11:15:32.066Z,5.75
2022-12-28T11:18:20.595Z,7.00
2022-12-28T11:20:53.369Z,6.00
2022-12-28T11:23:31.961Z,8.00
2022-12-28T11:26:00.298Z,8.00
2022-12-28T11:28:28.218Z,7.00
2022-12-28T11:30:58.702Z,4.40
2022-12-28T11:33:46.284Z,10.00
2022-12-28T11:36:25.230Z,9.00
2022-12-28T11:38:56.605Z,9.00
2022-12-28T11:41:31.790Z,11.67
2022-12-28T11:44:06.323Z,14.50
2022-12-28T11:46:40.308Z,13.00
2022-12-28T11:49:35.617Z,14.50
2022-12-28T11:52:27.558Z,4.00
2022-12-28T11:54:57.324Z,12.00
2022-12-28T11:57:44.997Z,14.00
2022-12-28T12:00:22.811Z,17.00
2022-12-28T12:03:01.099Z,16.00
2022-12-28T12:05:38.992Z,8.67
2022-12-28T12:08:12.635Z,15.00
2022-12-28T12:10:46.165Z,13.67
2022-12-28T12:13:26.961Z,14.00
2022-12-28T12:16:05.434Z,15.50
2022-12-28T12:18:49.412Z,13.00
2022-12-28T12:21:30.310Z,14.00
2022-12-28T12:24:14.825Z,14.00
2022-12-28T12:26:51.696Z,11.00
2022-12-28T12:29:47.188Z,11.50
2022-12-28T12:33:06.017Z,9.67
2022-12-28T12:35:57.831Z,10.00
2022-12-28T12:39:16.879Z,8.00
2022-12-28T12:42:29.889Z,4.00
2022-12-28T12:45:33.521Z,4.00
2022-12-28T12:48:42.785Z,2.25
2022-12-28T12:51:32.958Z,2.00
2022-12-28T12:54:33.354Z,2.00
2022-12-28T12:57:26.935Z,3.50
2022-12-28T13:00:18.238Z,2.00
2022-12-28T13:03:40.011Z,2.00
2022-12-28T13:06:10.170Z,2.00
2022-12-28T13:09:06.891Z,2.00
2022-12-28T13:11:40.253Z,2.00
2022-12-28T13:14:24.204Z,1.75
2022-12-28T13:16:59.112Z,3.00
2022-12-28T13:19:30.039Z,3.50
2022-12-28T13:21:59.318Z,3.00
2022-12-28T13:24:30.748Z,7.00
2022-12-28T13:27:02.632Z,7.40
2022-12-28T13:29:39.756Z,7.00
2022-12-28T13:32:32.872Z,5.00
2022-12-28T13:35:28.455Z,7.20
2022-12-28T13:38:18.170Z,3.50
2022-12-28T13:40:53.888Z,7.00
2022-12-28T13:44:16.896Z,8.00
2022-12-28T13:46:53.827Z,7.50
2022-12-28T13:49:23.961Z,12.00
2022-12-28T13:51:53.913Z,20.00
2022-12-28T13:54:25.204Z,10.67
2022-12-28T13:57:20.481Z,14.00
2022-12-28T13:59:47.417Z,14.00
2022-12-28T14:02:21.893Z,19.00
2022-12-28T14:04:54.427Z,24.00
2022-12-28T14:07:29.360Z,14.00
2022-12-28T14:09:58.755Z,18.00
2022-12-28T14:12:28.255Z,13.67
2022-12-28T14:15:01.333Z,15.67
2022-12-28T14:17:30.312Z,13.00
2022-12-28T14:20:00.252Z,8.20
2022-12-28T14:22:37.207Z,6.00
2022-12-28T14:25:15.257Z,14.00
2022-12-28T14:28:03.818Z,12.00
2022-12-28T14:30:42.295Z,12.50
2022-12-28T14:33:24.956Z,8.00
2022-12-28T14:36:22.329Z,13.00
2022-12-28T14:38:57.195Z,13.50
2022-12-28T14:41:39.898Z,15.00
2022-12-28T14:44:17.859Z,13.00
2022-12-28T14:46:46.784Z,23.50
2022-12-28T14:49:34.734Z,40.67
2022-12-28T14:52:09.219Z,25.00
2022-12-28T14:54:49.064Z,19.00
2022-12-28T14:57:32.144Z,23.33
2022-12-28T15:00:35.908Z,32.33
2022-12-28T15:03:20.983Z,31.00
2022-12-28T15:05:59.749Z,24.00
2022-12-28T15:08:29.245Z,27.00
2022-12-28T15:11:00.451Z,27.00
2022-12-28T15:13:29.137Z,28.50
2022-12-28T15:16:04.305Z,27.33
2022-12-28T15:18:34.237Z,23.67
2022-12-28T15:21:05.918Z,26.00
2022-12-28T15:23:35.407Z,24.00
2022-12-28T15:26:14.486Z,26.33
2022-12-28T15:28:43.970Z,27.00
2022-12-28T15:31:20.053Z,26.00
2022-12-28T15:33:49.796Z,26.67
2022-12-28T15:36:21.826Z,26.00
2022-12-28T15:38:51.488Z,19.67
2022-12-28T15:41:39.598Z,22.00
2022-12-28T15:44:09.040Z,26.00
2022-12-28T15:46:38.544Z,26.00
2022-12-28T15:49:11.171Z,26.00
2022-12-28T15:51:42.851Z,21.00
2022-12-28T15:54:12.248Z,24.50
2022-12-28T15:56:42.685Z,19.00
2022-12-28T15:59:15.334Z,18.00
2022-12-28T16:01:46.145Z,17.00
2022-12-28T16:04:15.701Z,20.50
2022-12-28T16:06:45.473Z,23.00
2022-12-28T16:09:14.970Z,27.50
2022-12-28T16:11:43.702Z,34.50
2022-12-28T16:14:16.693Z,34.00
2022-12-28T16:16:46.015Z,35.00
2022-12-28T16:19:16.745Z,34.00
2022-12-28T16:21:45.960Z,34.50
2022-12-28T16:24:13.724Z,32.00
2022-12-28T16:26:44.604Z,32.00
2022-12-28T16:29:13.333Z,32.00
2022-12-28T16:31:41.701Z,34.50
2022-12-28T16:34:17.443Z,33.00
2022-12-28T16:36:47.699Z,36.67
2022-12-28T16:39:18.748Z,39.00
2022-12-28T16:41:48.536Z,43.67
2022-12-28T16:44:22.173Z,64.25
2022-12-28T16:46:54.128Z,68.00
2022-12-28T16:49:26.218Z,65.00
2022-12-28T16:51:54.158Z,57.00
2022-12-28T16:54:27.154Z,51.67
2022-12-28T16:56:57.661Z,61.00
2022-12-28T16:59:28.598Z,62.00
2022-12-28T17:01:58.092Z,64.00
2022-12-28T17:04:28.667Z,56.50
2022-12-28T17:06:59.727Z,55.33
2022-12-28T17:09:29.411Z,50.67
2022-12-28T17:11:59.032Z,40.67
2022-12-28T17:14:37.676Z,41.67
2022-12-28T17:17:08.393Z,41.00
2022-12-28T17:19:38.237Z,43.33
2022-12-28T17:22:07.881Z,37.00
2022-12-28T17:24:37.601Z,38.33
2022-12-28T17:27:09.088Z,38.67
2022-12-28T17:29:40.501Z,34.67
2022-12-28T17:32:09.542Z,33.00
2022-12-28T17:34:39.265Z,32.00
2022-12-28T17:37:08.211Z,30.00
2022-12-28T17:39:40.269Z,28.00
2022-12-28T17:42:10.676Z,25.00
2022-12-28T17:44:39.638Z,20.00
2022-12-28T17:47:10.724Z,25.00
2022-12-28T17:49:39.428Z,24.00
2022-12-28T17:52:09.028Z,22.67
2022-12-28T17:54:38.428Z,25.33
2022-12-28T17:57:07.122Z,21.50
2022-12-28T17:59:35.808Z,27.50
2022-12-28T18:02:10.129Z,27.33
2022-12-28T18:04:41.245Z,28.00
2022-12-28T18:07:10.740Z,28.00
2022-12-28T18:09:39.412Z,25.50
2022-12-28T18:12:08.187Z,24.00
2022-12-28T18:14:37.582Z,24.67
2022-12-28T18:17:07.117Z,27.00
2022-12-28T18:19:37.098Z,24.00
2022-12-28T18:22:05.751Z,25.50
2022-12-28T18:24:35.226Z,24.00
2022-12-28T18:27:04.741Z,23.33
2022-12-28T18:29:34.208Z,28.00
2022-12-28T18:32:01.936Z,27.00
2022-12-28T18:34:30.764Z,30.50
2022-12-28T18:37:00.352Z,28.33
2022-12-28T18:39:29.979Z,25.67
2022-12-28T18:41:59.467Z,23.00
2022-12-28T18:44:29.024Z,19.67
2022-12-28T18:46:57.709Z,18.00
2022-12-28T18:49:29.327Z,70.67
2022-12-28T18:51:57.204Z,33.00
2022-12-28T18:54:25.879Z,23.00
2022-12-28T18:56:56.488Z,56.33
2022-12-28T18:59:26.105Z,49.33
2022-12-28T19:02:06.499Z,34.67
2022-12-28T19:04:36.130Z,31.00
2022-12-28T19:07:04.947Z,31.50
2022-12-28T19:09:32.653Z,29.00
2022-12-28T19:12:00.581Z,34.50
2022-12-28T19:14:29.319Z,35.00
2022-12-28T19:16:58.797Z,35.33
2022-12-28T19:19:27.595Z,34.00
2022-12-28T19:21:59.116Z,35.00
2022-12-28T19:24:28.957Z,30.33
2022-12-28T19:26:57.735Z,34.00
2022-12-28T19:29:27.230Z,34.00
2022-12-28T19:31:56.752Z,34.00
2022-12-28T19:34:26.301Z,35.67
2022-12-28T19:36:54.989Z,37.50
2022-12-28T19:39:25.442Z,37.00
2022-12-28T19:41:54.977Z,37.33
2022-12-28T19:44:24.655Z,38.67
2022-12-28T19:46:54.996Z,39.67
2022-12-28T19:49:24.614Z,40.33
2022-12-28T19:51:55.669Z,43.00
2022-12-28T19:54:26.130Z,62.50
2022-12-28T19:56:55.697Z,44.67
2022-12-28T19:59:25.639Z,50.33
2022-12-28T20:01:55.406Z,45.33
2022-12-28T20:04:25.137Z,47.00
2022-12-28T20:06:56.167Z,48.33
2022-12-28T20:09:25.744Z,50.00
2022-12-28T20:11:55.313Z,44.00
2022-12-28T20:14:25.267Z,36.00
2022-12-28T20:16:54.924Z,37.00
2022-12-28T20:19:24.151Z,37.00
2022-12-28T20:21:52.814Z,36.00
2022-12-28T20:24:22.477Z,44.33
2022-12-28T20:26:56.402Z,44.67
2022-12-28T20:29:29.377Z,46.00
2022-12-28T20:31:58.307Z,42.50
2022-12-28T20:34:28.114Z,41.67
2022-12-28T20:36:57.638Z,41.33
2022-12-28T20:39:27.167Z,31.67
2022-12-28T20:42:15.470Z,48.00
2022-12-28T20:44:45.065Z,45.00
2022-12-28T20:47:14.742Z,45.67
2022-12-28T20:49:44.413Z,44.67
2022-12-28T20:52:13.105Z,43.00
2022-12-28T20:54:42.712Z,42.00
2022-12-28T20:57:12.274Z,44.00
2022-12-28T20:59:41.797Z,44.00
2022-12-28T21:02:11.419Z,47.00
2022-12-28T21:04:41.152Z,47.00
2022-12-28T21:07:10.769Z,47.67
2022-12-28T21:09:40.358Z,46.33
2022-12-28T21:12:09.926Z,42.33
2022-12-28T21:14:39.467Z,43.00
2022-12-28T21:17:09.006Z,40.67
2022-12-28T21:19:38.584Z,42.33
2022-12-28T21:22:07.299Z,39.50
2022-12-28T21:24:38.524Z,39.67
2022-12-28T21:27:08.671Z,48.67
2022-12-28T21:29:38.231Z,43.00
2022-12-28T21:32:09.698Z,43.00
2022-12-28T21:34:38.422Z,42.67
2022-12-28T21:37:27.457Z,64.00
2022-12-28T21:39:57.081Z,75.67
2022-12-28T21:42:28.674Z,69.00
2022-12-28T21:44:59.283Z,75.50
2022-12-28T21:47:29.847Z,73.25
2022-12-28T21:49:59.487Z,84.50
2022-12-28T21:52:32.528Z,68.25
2022-12-28T21:55:23.131Z,65.33
2022-12-28T21:57:55.145Z,64.75
2022-12-28T22:00:44.181Z,66.50
2022-12-28T22:03:33.410Z,69.75
2022-12-28T22:06:05.262Z,70.50
2022-12-28T22:08:53.996Z,54.00
2022-12-28T22:11:42.178Z,55.00
2022-12-28T22:14:11.849Z,49.67
2022-12-28T22:16:42.794Z,49.67
2022-12-28T22:19:12.747Z,50.33
2022-12-28T22:21:44.225Z,46.00
2022-12-28T22:24:13.818Z,47.33
2022-12-28T22:26:43.472Z,49.00
2022-12-28T22:29:13.083Z,48.00
2022-12-28T22:31:42.842Z,47.33
2022-12-28T22:34:12.927Z,52.00
2022-12-28T22:36:42.510Z,45.00
2022-12-28T22:39:12.639Z,50.00
2022-12-28T22:41:42.263Z,52.33
2022-12-28T22:44:11.937Z,53.00
2022-12-28T22:46:41.596Z,54.33
2022-12-28T22:49:11.225Z,56.00
2022-12-28T22:51:41.189Z,48.00
2022-12-28T22:54:11.462Z,58.67
2022-12-28T22:56:41.114Z,63.00
2022-12-28T22:59:15.419Z,41.33
2022-12-28T23:01:48.446Z,56.67
2022-12-28T23:04:18.120Z,53.67
2022-12-28T23:06:47.821Z,37.00
2022-12-28T23:09:17.569Z,51.33
2022-12-28T23:11:47.841Z,55.00
2022-12-28T23:14:43.099Z,52.67
2022-12-28T23:17:16.320Z,55.33
2022-12-28T23:20:04.654Z,48.00
2022-12-28T23:23:11.002Z,52.00
2022-12-28T23:26:00.785Z,65.00
2022-12-28T23:28:30.740Z,54.50
2022-12-28T23:31:00.596Z,53.00
2022-12-28T23:33:30.331Z,56.33
2022-12-28T23:36:05.288Z,57.00
2022-12-28T23:38:35.014Z,56.00
2022-12-28T23:41:26.681Z,51.67
2022-12-28T23:43:56.190Z,56.00
2022-12-28T23:46:25.832Z,57.33
2022-12-28T23:48:55.562Z,57.33
2022-12-28T23:51:25.181Z,55.00
2022-12-28T23:53:54.843Z,54.33
2022-12-28T23:56:25.922Z,56.33
2022-12-28T23:58:55.629Z,63.00
